Time;durP1;ratioP1;P1;durP2;ratioP2;P2;SDS_P1;SDS_P2;PMS_P1;PMS_P2;Temp;Humidity;BMP_temperature;BMP_pressure;BME280_temperature;BME280_humidity;BME280_pressure;Samples;Min_cycle;Max_cycle;Signal;HPM_P1;HPM_P2
2021/04/26 00:02:26;;;;;;;11.25;5.43;;;9.20;99.90;;;9.44;54.65;102437.63;5073597;28;20523;-76
2021/04/26 00:04:54;;;;;;;7.03;5.05;;;9.20;99.90;;;9.40;55.30;102433.09;5073821;28;20367;-76
2021/04/26 00:07:21;;;;;;;9.68;5.85;;;9.20;99.90;;;9.40;55.31;102438.38;5072783;28;20527;-76
2021/04/26 00:09:49;;;;;;;10.60;5.30;;;9.20;99.90;;;9.37;55.21;102427.72;5074091;28;20094;-76
2021/04/26 00:12:18;;;;;;;7.43;5.18;;;9.10;99.90;;;9.47;54.77;102428.84;5073463;28;20559;-76
2021/04/26 00:14:45;;;;;;;9.98;5.90;;;9.20;99.90;;;9.40;55.52;102419.00;5073424;28;20044;-76
2021/04/26 00:17:13;;;;;;;7.47;5.32;;;9.10;99.90;;;9.17;55.16;102388.47;5073539;28;20094;-76
2021/04/26 00:19:40;;;;;;;11.35;5.82;;;9.10;99.90;;;9.34;55.47;102414.47;5072200;28;20163;-76
2021/04/26 00:22:08;;;;;;;9.07;5.53;;;9.10;99.90;;;9.27;55.68;102411.63;5073205;28;20420;-76
2021/04/26 00:24:36;;;;;;;8.65;5.70;;;9.10;99.90;;;9.24;55.94;102415.06;5073544;28;20037;-76
2021/04/26 00:27:04;;;;;;;8.50;5.72;;;9.00;99.90;;;9.20;55.75;102393.81;5073432;28;20032;-76
2021/04/26 00:29:32;;;;;;;8.27;5.55;;;9.10;99.90;;;9.27;55.61;102406.34;5073362;28;20033;-76
2021/04/26 00:32:00;;;;;;;7.75;5.35;;;9.00;99.90;;;9.26;55.39;102405.44;5073345;28;20098;-76
2021/04/26 00:34:27;;;;;;;6.70;5.32;;;9.00;99.90;;;9.22;55.80;102395.66;5072934;28;20071;-76
2021/04/26 00:36:55;;;;;;;10.43;5.75;;;9.00;99.90;;;9.21;55.63;102395.63;5073231;28;20052;-76
2021/04/26 00:39:22;;;;;;;10.70;5.88;;;9.00;99.90;;;9.14;55.81;102393.69;5073218;28;20041;-76
2021/04/26 00:41:50;;;;;;;8.70;6.22;;;8.90;99.90;;;9.06;56.48;102388.19;5073403;28;20051;-76
2021/04/26 00:44:18;;;;;;;11.68;5.90;;;8.90;99.90;;;9.09;56.08;102401.50;5067079;28;20067;-75
2021/04/26 00:46:46;;;;;;;8.40;5.72;;;8.80;99.90;;;9.07;56.07;102390.91;5071694;28;20102;-76
2021/04/26 00:49:14;;;;;;;8.30;5.93;;;8.90;99.90;;;8.64;56.18;102318.47;5072842;28;20048;-76
2021/04/26 00:51:42;;;;;;;7.28;5.10;;;8.90;99.90;;;9.05;56.67;102378.50;5072874;28;20040;-76
2021/04/26 00:54:10;;;;;;;6.90;5.80;;;8.80;99.90;;;9.07;56.78;102377.69;5072931;28;20052;-76
2021/04/26 00:56:37;;;;;;;8.27;5.22;;;8.80;99.90;;;9.07;56.53;102374.16;5072828;28;20106;-76
2021/04/26 00:59:05;;;;;;;11.75;5.65;;;8.80;99.90;;;8.92;56.57;102366.72;5088111;28;20052;-76
2021/04/26 01:01:32;;;;;;;12.02;5.68;;;8.80;99.90;;;9.04;56.88;102369.69;5072435;28;20048;-76
2021/04/26 01:04:01;;;;;;;6.82;5.10;;;8.80;99.90;;;9.11;56.85;102360.19;5071418;28;20862;-76
2021/04/26 01:06:29;;;;;;;15.32;5.95;;;8.90;99.90;;;8.93;56.89;102365.88;5071428;28;20056;-76
2021/04/26 01:08:57;;;;;;;12.63;6.40;;;8.80;99.90;;;8.98;56.71;102358.97;5072641;28;20052;-76
2021/04/26 01:11:41;;;;;;;9.65;5.95;;;8.80;99.90;;;8.99;56.95;102362.50;5088252;28;20049;-76
2021/04/26 01:14:26;;;;;;;8.57;5.43;;;8.80;99.90;;;8.91;57.30;102364.03;5071254;28;20452;-76
2021/04/26 01:17:05;;;;;;;9.77;6.20;;;8.70;99.90;;;8.91;57.01;102370.22;5071332;28;20131;-76
2021/04/26 01:20:38;;;;;;;9.00;6.03;;;8.70;99.90;;;9.04;56.79;102367.03;5070995;28;20060;-76
2021/04/26 01:23:55;;;;;;;12.80;6.05;;;8.70;99.90;;;8.97;57.14;102366.84;5029948;28;20045;-76
2021/04/26 01:26:32;;;;;;;11.73;6.00;;;8.80;99.90;;;9.03;57.26;102364.38;5087910;28;20045;-76
2021/04/26 01:29:09;;;;;;;10.20;6.30;;;8.80;99.90;;;8.99;57.19;102362.50;5071088;28;20158;-76
2021/04/26 01:31:45;;;;;;;10.48;5.50;;;8.80;99.90;;;8.91;57.59;102358.75;5071096;28;20059;-76
2021/04/26 01:34:15;;;;;;;12.70;6.20;;;8.70;99.90;;;8.87;58.05;102355.16;5072378;28;20147;-76
2021/04/26 01:36:59;;;;;;;10.38;6.63;;;8.60;99.90;;;8.88;58.04;102356.94;5070659;28;20072;-76
2021/04/26 01:39:28;;;;;;;14.48;6.55;;;8.70;99.90;;;8.88;57.22;102346.38;5070957;28;20043;-76
2021/04/26 01:41:58;;;;;;;11.50;6.07;;;8.70;99.90;;;8.87;57.47;102347.25;5070882;28;20032;-76
2021/04/26 01:44:25;;;;;;;9.73;6.47;;;8.70;99.90;;;8.88;57.77;102337.59;5070552;28;20512;-76
2021/04/26 01:46:54;;;;;;;10.80;6.63;;;8.70;99.90;;;8.90;57.47;102341.16;5071246;28;20048;-76
2021/04/26 01:49:23;;;;;;;9.00;6.20;;;8.70;99.90;;;8.88;57.61;102334.94;5072288;28;20143;-75
2021/04/26 01:51:51;;;;;;;10.35;6.25;;;8.60;99.90;;;8.77;57.75;102336.41;5088199;28;20044;-76
2021/04/26 01:54:19;;;;;;;13.50;5.85;;;8.60;99.90;;;8.84;57.94;102330.44;5073184;28;20143;-76
2021/04/26 01:56:49;;;;;;;9.30;5.75;;;8.60;99.90;;;8.87;57.83;102325.25;5072145;28;20379;-76
2021/04/26 01:59:19;;;;;;;11.60;6.68;;;8.60;99.90;;;8.78;57.82;102325.00;5071727;28;20045;-75
2021/04/26 02:01:52;;;;;;;11.53;6.27;;;8.50;99.90;;;8.76;57.95;102321.44;5071583;28;20131;-76
2021/04/26 02:04:21;;;;;;;14.60;6.57;;;8.50;99.90;;;8.84;58.35;102325.16;5072665;28;20041;-76
2021/04/26 02:07:09;;;;;;;13.40;6.38;;;8.60;99.90;;;8.72;58.37;102315.19;5071248;28;20128;-75
2021/04/26 02:09:58;;;;;;;8.30;6.60;;;8.50;99.90;;;8.72;58.01;102304.63;5071851;28;20060;-76
2021/04/26 02:12:26;;;;;;;11.00;6.63;;;8.50;99.90;;;8.66;58.28;102315.03;5070711;28;20048;-76
2021/04/26 02:14:54;;;;;;;11.68;6.30;;;8.50;99.90;;;8.60;58.89;102313.97;5070350;28;20045;-76
2021/04/26 02:17:23;;;;;;;10.82;6.45;;;8.40;99.90;;;8.59;58.74;102318.38;5072278;28;20565;-76
2021/04/26 02:19:55;;;;;;;11.95;6.57;;;8.40;99.90;;;8.46;58.98;102321.50;5070662;28;20090;-76
2021/04/26 02:22:22;;;;;;;9.77;6.38;;;8.40;99.90;;;8.56;59.00;102323.53;5070536;28;20060;-76
2021/04/26 02:24:55;;;;;;;9.73;6.47;;;8.30;99.90;;;8.44;59.19;102288.06;5070528;28;20040;-76
2021/04/26 02:27:24;;;;;;;12.63;5.80;;;8.40;99.90;;;8.59;58.66;102318.38;5087108;28;20056;-76
2021/04/26 02:29:52;;;;;;;11.45;6.55;;;8.40;99.90;;;8.67;58.89;102313.28;5070538;28;20044;-76
2021/04/26 02:32:28;;;;;;;15.40;7.30;;;8.40;99.90;;;8.52;59.35;102297.03;5074185;28;20102;-76
2021/04/26 02:35:23;;;;;;;9.63;6.38;;;8.40;99.90;;;8.48;59.65;102284.66;5075167;28;20139;-76
2021/04/26 02:37:55;;;;;;;9.90;6.63;;;8.40;99.90;;;8.64;59.34;102305.28;5074142;28;20515;-76
2021/04/26 02:40:26;;;;;;;10.10;6.63;;;8.40;99.90;;;8.61;59.57;102299.94;5093021;28;20141;-76
2021/04/26 02:42:58;;;;;;;10.63;6.28;;;8.30;99.90;;;8.57;59.49;102304.25;5076091;28;20048;-76
2021/04/26 02:45:32;;;;;;;12.52;6.43;;;8.30;99.90;;;8.57;59.88;102298.06;5075825;28;20056;-76
2021/04/26 02:48:01;;;;;;;9.10;6.40;;;8.30;99.90;;;8.59;59.19;102299.91;5076171;28;20072;-76
2021/04/26 02:50:34;;;;;;;9.35;6.28;;;8.30;99.90;;;8.55;59.79;102298.03;5092926;28;20151;-76
2021/04/26 02:53:10;;;;;;;11.98;6.57;;;8.30;99.90;;;8.48;60.05;102298.69;5076037;28;20048;-76
2021/04/26 02:55:38;;;;;;;10.68;6.35;;;8.30;99.90;;;8.52;60.54;102291.75;5093189;28;20472;-76
2021/04/26 02:58:06;;;;;;;8.45;6.15;;;8.30;99.90;;;8.50;59.75;102291.72;5092813;28;20060;-76
2021/04/26 03:00:36;;;;;;;10.05;6.20;;;8.30;99.90;;;8.47;59.91;102283.75;5092766;28;20152;-76
2021/04/26 03:03:22;;;;;;;12.02;6.28;;;8.30;99.90;;;8.46;59.94;102273.16;5092831;28;20554;-76
2021/04/26 03:05:52;;;;;;;9.93;6.05;;;8.30;99.90;;;8.52;60.36;102275.94;5075539;28;20044;-76
2021/04/26 03:08:21;;;;;;;7.05;5.82;;;8.30;99.90;;;8.46;60.23;102275.81;5075716;28;20090;-76
2021/04/26 03:10:50;;;;;;;9.07;6.57;;;8.20;99.90;;;8.57;59.94;102269.06;5087773;28;20416;-76
2021/04/26 03:13:18;;;;;;;10.40;6.72;;;8.40;99.90;;;8.53;60.05;102264.56;5073341;28;20051;-76
2021/04/26 03:15:46;;;;;;;11.13;6.65;;;8.30;99.90;;;8.52;60.49;102262.75;5073417;28;20408;-76
2021/04/26 03:18:15;;;;;;;11.75;5.60;;;8.30;99.90;;;8.40;60.47;102242.22;5073437;28;20136;-76
2021/04/26 03:20:44;;;;;;;8.55;6.03;;;8.30;99.90;;;8.47;60.50;102256.47;5073402;28;20045;-76
2021/04/26 03:23:20;;;;;;;18.10;6.13;;;8.30;99.90;;;8.39;60.66;102243.09;5073382;28;20083;-76
2021/04/26 03:25:49;;;;;;;10.82;6.18;;;8.20;99.90;;;8.41;60.52;102236.13;5074534;28;20041;-76
2021/04/26 03:28:19;;;;;;;8.38;6.32;;;8.20;99.90;;;8.41;60.91;102236.13;5073256;28;20045;-76
2021/04/26 03:30:47;;;;;;;10.70;6.60;;;8.20;99.90;;;8.43;61.15;102238.78;5074852;28;20490;-76
2021/04/26 03:33:32;;;;;;;11.48;6.93;;;8.20;99.90;;;8.45;60.95;102245.91;5073286;28;20135;-76
2021/04/26 03:36:00;;;;;;;11.70;6.45;;;8.20;99.90;;;8.42;61.10;102240.53;5074371;28;20037;-76
2021/04/26 03:38:29;;;;;;;8.93;6.75;;;8.20;99.90;;;8.30;61.39;102221.78;5074370;28;20056;-76
2021/04/26 03:40:58;;;;;;;14.68;6.60;;;8.20;99.90;;;8.41;61.00;102244.03;5089740;28;20114;-76
2021/04/26 03:43:30;;;;;;;9.55;6.57;;;8.20;99.90;;;8.28;61.42;102217.31;5089834;28;20536;-76
2021/04/26 03:46:08;;;;;;;9.43;6.13;;;8.10;99.90;;;8.40;61.37;102236.09;5072640;28;20545;-76
2021/04/26 03:48:49;;;;;;;12.65;6.53;;;8.10;99.90;;;8.34;61.90;102238.56;5074261;28;20048;-76
2021/04/26 03:51:20;;;;;;;7.97;5.55;;;8.10;99.90;;;8.35;61.55;102232.41;5072836;28;20493;-76
2021/04/26 03:54:06;;;;;;;10.65;5.82;;;8.10;99.90;;;8.29;61.65;102221.72;5074165;28;20052;-75
2021/04/26 03:56:43;;;;;;;13.02;7.05;;;8.10;99.90;;;8.29;61.57;102221.72;5072725;28;20044;-75
2021/04/26 03:59:13;;;;;;;13.10;6.13;;;8.10;99.90;;;8.37;61.75;102230.72;5072706;28;20045;-75
2021/04/26 04:01:41;;;;;;;12.60;6.80;;;8.10;99.90;;;8.20;61.56;102202.16;5072536;28;20378;-75
2021/04/26 04:04:09;;;;;;;11.10;6.65;;;8.10;99.90;;;8.27;62.09;102212.88;5073601;28;20361;-77
2021/04/26 04:06:55;;;;;;;8.43;6.45;;;8.10;99.90;;;8.23;62.26;102225.03;5073618;28;20047;-73
2021/04/26 04:09:59;;;;;;;10.73;6.80;;;8.10;99.90;;;8.22;62.07;102220.66;5051413;28;20053;-81
2021/04/26 04:12:49;;;;;;;8.75;6.22;;;8.00;99.90;;;8.22;61.94;102218.00;5043769;28;20428;-77
2021/04/26 04:15:18;;;;;;;10.85;7.00;;;8.00;99.90;;;8.31;62.07;102222.66;5072471;28;20052;-77
2021/04/26 04:17:45;;;;;;;10.63;6.53;;;8.10;99.90;;;8.28;62.30;102225.22;5072327;28;20491;-76
2021/04/26 04:20:13;;;;;;;13.27;6.65;;;8.00;99.90;;;8.28;62.19;102225.22;5072283;28;20063;-79
2021/04/26 04:22:45;;;;;;;8.75;6.43;;;8.00;99.90;;;8.28;62.25;102217.31;5072230;28;20094;-80
2021/04/26 04:25:15;;;;;;;12.00;7.05;;;8.10;99.90;;;8.26;62.17;102219.00;5072069;28;20048;-79
2021/04/26 04:27:44;;;;;;;11.52;7.38;;;8.10;99.90;;;8.20;62.45;102220.63;5072062;28;20040;-79
2021/04/26 04:30:15;;;;;;;14.70;6.30;;;8.00;99.90;;;8.15;62.57;102216.94;5073328;28;20066;-79
2021/04/26 04:33:01;;;;;;;9.80;6.72;;;7.90;99.90;;;8.16;62.43;102213.47;5073120;28;20178;-79
2021/04/26 04:35:47;;;;;;;11.50;6.63;;;7.90;99.90;;;8.28;62.09;102218.22;5073159;28;20079;-83
2021/04/26 04:38:20;;;;;;;10.00;6.97;;;8.00;99.90;;;8.20;62.70;102212.69;5073332;28;20072;-80
2021/04/26 04:41:07;;;;;;;11.32;7.38;;;8.00;99.90;;;8.25;62.54;102211.94;5072934;28;20129;-79
2021/04/26 04:43:38;;;;;;;16.60;7.35;;;8.00;99.90;;;8.21;62.91;102208.31;5071683;28;20040;-80
2021/04/26 04:46:06;;;;;;;8.68;6.80;;;8.00;99.90;;;8.16;62.86;102209.94;5073208;28;20063;-75
2021/04/26 04:48:38;;;;;;;9.65;7.00;;;7.90;99.90;;;8.03;63.21;102182.34;5073176;28;20064;-80
2021/04/26 04:51:10;;;;;;;11.65;7.43;;;8.00;99.90;;;8.30;62.72;102205.06;5071819;28;20379;-80
2021/04/26 04:53:41;;;;;;;11.88;6.95;;;8.00;99.90;;;8.29;62.58;102211.16;5088014;28;20040;-80
2021/04/26 04:56:09;;;;;;;13.35;7.32;;;8.00;99.90;;;8.35;62.79;102204.31;5071580;28;20055;-79
2021/04/26 04:58:41;;;;;;;9.73;6.90;;;8.10;99.90;;;8.39;62.75;102205.28;5071561;28;20056;-80
2021/04/26 05:01:08;;;;;;;6.93;6.22;;;8.10;99.90;;;8.41;62.71;102203.59;5071516;28;20055;-80
2021/04/26 05:03:56;;;;;;;7.95;6.88;;;8.20;99.90;;;8.46;63.01;102196.72;5050985;28;20490;-79
2021/04/26 05:06:42;;;;;;;10.77;7.10;;;8.30;99.90;;;8.53;62.58;102188.09;5072520;28;20052;-80
2021/04/26 05:09:28;;;;;;;11.00;7.38;;;8.40;99.90;;;8.62;62.48;102196.22;5072827;28;20523;-80
2021/04/26 05:12:15;;;;;;;9.93;6.88;;;8.40;99.90;;;8.70;62.44;102197.28;5072269;28;20505;-80
2021/04/26 05:15:02;;;;;;;10.20;6.78;;;8.50;99.90;;;8.80;61.84;102207.22;5072396;28;20643;-80
2021/04/26 05:17:30;;;;;;;11.93;6.75;;;8.60;99.90;;;8.85;62.34;102200.28;5072514;28;20508;-80
2021/04/26 05:19:58;;;;;;;11.63;6.93;;;8.60;99.90;;;9.01;62.18;102207.72;5072627;28;20462;-81
2021/04/26 05:22:26;;;;;;;11.80;6.90;;;8.80;99.90;;;8.89;61.49;102207.44;5071278;28;20052;-80
2021/04/26 05:25:03;;;;;;;10.50;7.13;;;8.70;99.90;;;8.85;62.30;102202.94;5072378;28;20045;-80
2021/04/26 05:27:32;;;;;;;10.23;6.65;;;8.70;99.90;;;8.94;62.39;102201.41;5072210;28;20051;-81
2021/04/26 05:30:00;;;;;;;14.15;6.88;;;8.80;99.90;;;9.03;62.01;102211.31;5071074;28;20159;-80
2021/04/26 05:32:28;;;;;;;14.38;7.10;;;8.80;99.90;;;9.21;61.39;102208.19;5070924;28;20527;-79
2021/04/26 05:35:03;;;;;;;16.55;7.53;;;9.00;99.90;;;8.91;61.35;102168.78;5087916;28;20143;-78
2021/04/26 05:37:32;;;;;;;14.93;7.07;;;8.90;99.90;;;9.30;61.75;102209.28;5070979;28;20052;-79
2021/04/26 05:39:59;;;;;;;12.85;6.82;;;9.10;99.90;;;9.37;61.26;102186.56;5070907;28;20048;-79
2021/04/26 05:42:30;;;;;;;6.90;5.88;;;9.20;99.90;;;9.68;60.49;102211.00;5070947;28;20486;-78
2021/04/26 05:44:58;;;;;;;11.80;6.70;;;9.40;99.90;;;9.93;60.20;102201.78;5070557;28;20053;-77
2021/04/26 05:47:45;;;;;;;12.95;6.35;;;9.60;99.90;;;10.11;59.64;102198.66;5071717;28;20055;-77
2021/04/26 05:50:13;;;;;;;9.98;6.25;;;9.80;99.90;;;10.25;59.01;102198.06;5072256;28;20401;-78
2021/04/26 05:52:40;;;;;;;10.38;6.10;;;10.00;99.90;;;10.45;58.88;102201.94;5072068;28;20048;-77
2021/04/26 05:55:09;;;;;;;10.82;5.93;;;10.20;99.90;;;10.52;58.32;102201.19;5070949;28;20147;-78
2021/04/26 05:57:38;;;;;;;11.80;6.03;;;10.30;99.90;;;10.69;57.56;102210.28;5071977;28;20375;-79
2021/04/26 06:00:07;;;;;;;13.18;5.80;;;10.40;99.90;;;10.80;57.14;102198.13;5072162;28;20044;-78
2021/04/26 06:02:39;;;;;;;11.07;6.03;;;10.60;99.90;;;11.00;57.28;102206.38;5071913;28;20513;-77
2021/04/26 06:05:08;;;;;;;12.93;6.20;;;10.70;99.90;;;11.15;56.40;102201.28;5072600;28;20394;-78
2021/04/26 06:07:36;;;;;;;11.80;6.07;;;10.80;99.90;;;10.90;56.48;102164.75;5076030;28;20094;-78
2021/04/26 06:10:05;;;;;;;8.30;5.28;;;10.80;99.90;;;11.10;56.18;102200.34;5075738;28;20557;-78
2021/04/26 06:12:33;;;;;;;7.72;5.53;;;10.90;99.90;;;11.23;55.75;102196.09;5076310;28;20040;-79
2021/04/26 06:15:02;;;;;;;16.02;6.35;;;11.00;99.90;;;11.32;55.73;102198.91;5076358;28;20059;-78
2021/04/26 06:17:29;;;;;;;12.45;6.13;;;11.10;99.90;;;11.48;55.67;102201.78;5075774;28;20067;-78
2021/04/26 06:19:56;;;;;;;15.18;6.00;;;11.20;99.90;;;11.56;55.46;102205.41;5075607;28;20064;-78
2021/04/26 06:22:24;;;;;;;11.20;5.80;;;11.30;99.90;;;11.59;55.34;102202.78;5075866;28;20040;-78
2021/04/26 06:24:52;;;;;;;12.35;6.00;;;11.30;99.90;;;11.70;54.88;102189.72;5075802;28;20059;-78
2021/04/26 06:27:19;;;;;;;9.48;5.75;;;11.50;99.90;;;11.66;54.92;102186.16;5075683;28;20068;-78
2021/04/26 06:29:47;;;;;;;9.88;5.95;;;11.50;99.90;;;11.78;54.62;102191.59;5075550;28;20399;-79
2021/04/26 06:32:15;;;;;;;9.50;6.20;;;11.60;99.90;;;11.54;54.94;102203.59;5075556;28;20127;-79
2021/04/26 06:34:42;;;;;;;14.35;6.88;;;11.30;99.90;;;11.52;54.80;102192.09;5075203;28;20377;-79
2021/04/26 06:37:10;;;;;;;10.35;6.25;;;11.30;99.90;;;11.56;54.63;102200.13;5075560;28;20044;-80
2021/04/26 06:39:37;;;;;;;10.98;6.15;;;11.30;99.90;;;11.46;55.00;102207.91;5074002;28;20358;-79
2021/04/26 06:42:06;;;;;;;7.68;5.65;;;11.30;99.90;;;11.53;55.58;102210.69;5075272;28;20106;-78
2021/04/26 06:44:33;;;;;;;12.43;5.35;;;11.30;99.90;;;11.68;55.22;102204.72;5074914;28;20057;-79
2021/04/26 06:47:01;;;;;;;13.25;6.50;;;11.50;99.90;;;11.73;54.60;102216.25;5074885;28;20048;-79
2021/04/26 06:49:29;;;;;;;10.38;6.18;;;11.50;99.90;;;11.66;54.37;102212.66;5075263;28;20048;-79
2021/04/26 06:51:57;;;;;;;13.20;5.72;;;11.50;99.90;;;11.77;54.23;102202.16;5075158;28;20045;-80
2021/04/26 06:54:24;;;;;;;13.98;4.90;;;11.60;99.90;;;11.85;53.65;102203.16;5075144;28;20332;-79
2021/04/26 06:56:51;;;;;;;7.80;5.63;;;11.60;99.90;;;12.03;53.97;102199.81;5075117;28;20053;-79
2021/04/26 06:59:19;;;;;;;6.95;5.40;;;11.80;99.90;;;12.04;53.88;102201.63;5075110;28;20102;-77
2021/04/26 07:01:46;;;;;;;10.52;6.25;;;11.80;99.90;;;12.11;53.61;102203.44;5075176;28;20052;-78
2021/04/26 07:04:14;;;;;;;8.07;6.05;;;11.90;99.90;;;12.25;54.12;102209.81;5075100;28;20059;-79
2021/04/26 07:06:42;;;;;;;11.95;5.40;;;12.00;99.90;;;12.21;53.03;102197.38;5074732;28;20094;-79
2021/04/26 07:09:09;;;;;;;10.40;5.82;;;12.10;99.90;;;12.18;53.13;102198.22;5074977;28;20129;-78
2021/04/26 07:11:38;;;;;;;7.50;4.93;;;12.00;99.90;;;11.77;53.00;102138.53;5074815;28;20056;-78
2021/04/26 07:14:07;;;;;;;10.82;5.28;;;11.90;99.90;;;12.37;53.34;102200.19;5075009;28;20052;-79
2021/04/26 07:16:35;;;;;;;11.82;5.68;;;12.10;99.90;;;12.44;53.26;102194.06;5074078;28;20048;-79
2021/04/26 07:19:03;;;;;;;9.38;5.43;;;12.20;99.90;;;12.61;53.70;102195.09;5074403;28;20575;-77
2021/04/26 07:21:31;;;;;;;8.13;5.57;;;12.30;99.90;;;12.79;52.71;102198.78;5074577;28;20045;-76
2021/04/26 07:23:59;;;;;;;8.77;5.28;;;12.50;99.90;;;12.92;52.46;102190.91;5074528;28;20398;-77
2021/04/26 07:26:27;;;;;;;10.43;5.22;;;12.70;99.90;;;12.99;52.03;102190.06;5074289;28;20106;-76
2021/04/26 07:28:54;;;;;;;12.27;5.78;;;12.80;99.90;;;12.96;50.69;102187.41;5074322;28;20094;-77
2021/04/26 07:31:21;;;;;;;11.05;5.22;;;12.80;99.90;;;12.55;50.17;102181.78;5074329;28;20040;-76
2021/04/26 07:33:49;;;;;;;9.65;5.78;;;12.60;99.90;;;12.39;51.14;102177.19;5073915;28;20128;-77
2021/04/26 07:36:18;;;;;;;6.60;5.07;;;12.30;99.90;;;12.37;51.70;102181.59;5074313;28;20044;-77
2021/04/26 07:38:45;;;;;;;12.75;5.40;;;12.10;99.90;;;12.54;50.72;102179.13;5073977;28;20044;-77
2021/04/26 07:41:14;;;;;;;10.68;5.43;;;12.30;99.90;;;12.42;50.96;102171.03;5073918;28;20041;-76
2021/04/26 07:43:41;;;;;;;9.70;5.05;;;12.20;99.90;;;12.41;50.71;102171.91;5073936;28;20520;-77
2021/04/26 07:46:09;;;;;;;10.82;5.68;;;12.20;99.90;;;12.51;50.69;102174.66;5072806;28;20102;-77
2021/04/26 07:48:38;;;;;;;13.27;5.40;;;12.30;99.90;;;12.57;50.74;102171.16;5074166;28;20050;-77
2021/04/26 07:51:07;;;;;;;9.30;5.93;;;12.40;99.90;;;12.67;50.13;102176.59;5073987;28;20543;-78
2021/04/26 07:53:35;;;;;;;12.15;5.82;;;12.50;99.90;;;12.61;51.27;102172.97;5073739;28;20509;-78
2021/04/26 07:56:03;;;;;;;12.98;6.38;;;12.40;99.90;;;12.91;50.72;102173.19;5073813;28;20113;-78
2021/04/26 07:58:31;;;;;;;11.55;5.88;;;12.70;99.90;;;13.04;50.09;102174.22;5072423;28;20102;-79
2021/04/26 08:00:59;;;;;;;10.60;6.35;;;12.80;99.90;;;13.15;50.13;102154.81;5073812;28;20044;-80
2021/04/26 08:03:27;;;;;;;10.23;4.97;;;12.90;99.90;;;13.31;49.25;102169.06;5073720;28;20045;-79
2021/04/26 08:05:55;;;;;;;8.82;4.88;;;13.10;99.90;;;13.55;48.51;102164.75;5073642;28;20037;-78
2021/04/26 08:08:23;;;;;;;11.57;5.45;;;13.30;99.90;;;13.72;48.27;102159.50;5073583;28;20048;-78
2021/04/26 08:10:50;;;;;;;10.30;5.35;;;13.50;99.90;;;13.80;47.42;102157.72;5073632;28;20040;-77
2021/04/26 08:13:18;;;;;;;5.80;5.03;;;13.70;99.90;;;13.97;47.15;102164.00;5073552;28;20048;-77
2021/04/26 08:15:46;;;;;;;10.52;5.43;;;13.70;99.90;;;14.05;46.45;102150.72;5073634;28;20040;-77
2021/04/26 08:18:24;;;;;;;11.02;5.30;;;13.80;99.90;;;14.11;47.07;102159.59;5073582;28;20118;-78
2021/04/26 08:20:53;;;;;;;10.40;5.10;;;13.90;99.90;;;14.39;46.30;102157.88;5073303;28;20040;-77
2021/04/26 08:23:20;;;;;;;7.35;5.10;;;14.10;99.90;;;14.02;46.44;102068.22;5073567;28;20048;-77
2021/04/26 08:25:47;;;;;;;9.75;5.22;;;14.40;99.90;;;14.79;45.01;102164.97;5073082;28;20327;-77
2021/04/26 08:28:16;;;;;;;10.18;5.25;;;14.60;99.90;;;14.92;44.51;102168.53;5071276;28;20086;-77
2021/04/26 08:30:48;;;;;;;10.00;5.00;;;14.70;99.90;;;13.96;42.37;102154.25;5073413;28;20049;-77
2021/04/26 08:33:16;;;;;;;9.98;4.93;;;14.20;99.90;;;13.26;46.45;102161.06;5073309;28;20123;-77
2021/04/26 08:35:45;;;;;;;9.55;4.93;;;13.20;99.90;;;12.41;48.24;102159.53;5073286;28;20052;-78
2021/04/26 08:38:12;;;;;;;9.23;4.85;;;12.30;99.90;;;13.20;46.52;102161.00;5073054;28;20072;-78
2021/04/26 08:40:40;;;;;;;6.78;5.45;;;12.80;99.90;;;13.24;46.08;102146.88;5071840;28;20072;-78
2021/04/26 08:43:08;;;;;;;9.05;5.28;;;13.00;99.90;;;13.52;44.29;102154.09;5072676;28;20040;-77
2021/04/26 08:45:36;;;;;;;8.48;4.72;;;13.30;99.90;;;13.76;45.01;102155.06;5072908;28;20131;-78
2021/04/26 08:48:07;;;;;;;6.95;4.72;;;13.40;99.90;;;14.04;43.23;102154.25;5072778;28;20458;-78
2021/04/26 08:50:35;;;;;;;11.32;5.22;;;13.80;99.90;;;13.71;44.05;102143.50;5073030;28;20049;-78
2021/04/26 08:53:03;;;;;;;6.47;4.97;;;13.50;99.90;;;12.75;43.85;102139.47;5072867;28;20071;-79
2021/04/26 08:55:31;;;;;;;7.68;5.38;;;12.80;99.90;;;12.86;43.63;102113.84;5072737;28;20044;-79
2021/04/26 08:57:58;;;;;;;7.93;5.20;;;12.90;99.90;;;12.67;44.58;102133.22;5072911;28;20045;-80
2021/04/26 09:00:26;;;;;;;6.88;5.53;;;12.50;99.90;;;12.73;46.08;102143.88;5072867;28;20036;-80
2021/04/26 09:02:56;;;;;;;8.57;5.13;;;12.40;99.90;;;13.34;45.56;102140.72;5072668;28;20113;-79
2021/04/26 09:05:27;;;;;;;8.43;5.22;;;12.90;99.90;;;13.85;44.29;102131.16;5072649;28;20075;-77
2021/04/26 09:07:57;;;;;;;8.13;4.85;;;13.50;99.90;;;14.18;43.79;102128.56;5072231;28;20478;-78
2021/04/26 09:10:40;;;;;;;8.88;5.50;;;13.90;99.90;;;13.65;43.78;102138.19;5072589;28;20049;-76
2021/04/26 09:13:23;;;;;;;7.63;5.13;;;13.60;99.90;;;12.19;43.98;102135.47;5072554;28;20050;-78
2021/04/26 09:15:52;;;;;;;7.25;5.28;;;12.40;99.90;;;12.58;45.03;102125.19;5072426;28;20102;-77
2021/04/26 09:18:19;;;;;;;9.98;5.60;;;12.30;99.90;;;13.18;43.68;102114.94;5072342;28;20180;-77
2021/04/26 09:20:48;;;;;;;9.38;5.47;;;12.70;99.90;;;12.39;43.22;102107.31;5072511;28;20049;-79
2021/04/26 09:23:16;;;;;;;8.05;5.85;;;12.40;99.90;;;11.48;44.35;102109.03;5072592;28;20343;-77
2021/04/26 09:25:44;;;;;;;7.32;5.22;;;11.60;99.90;;;12.25;45.76;102107.19;5072141;28;20044;-78
2021/04/26 09:28:14;;;;;;;6.85;4.88;;;11.80;99.90;;;12.81;45.76;102105.00;5072163;28;20133;-77
2021/04/26 09:30:51;;;;;;;12.38;6.25;;;12.30;99.90;;;13.38;46.76;102107.97;5072400;28;20048;-78
2021/04/26 09:33:29;;;;;;;8.20;5.18;;;12.90;99.90;;;13.98;46.11;102109.00;5072476;28;20044;-78
2021/04/26 09:36:17;;;;;;;8.07;5.30;;;13.60;99.90;;;14.11;45.26;102108.16;5072388;28;20052;-78
2021/04/26 09:38:46;;;;;;;8.30;5.10;;;13.90;99.90;;;13.11;43.19;102094.56;5072226;28;20036;-79
2021/04/26 09:41:24;;;;;;;12.27;5.53;;;13.40;99.90;;;13.09;46.61;102093.66;5072425;28;20098;-79
2021/04/26 09:44:09;;;;;;;12.13;5.47;;;12.80;99.90;;;13.37;44.05;102090.25;5072408;28;20048;-79
2021/04/26 09:46:42;;;;;;;10.05;6.32;;;13.20;99.90;;;14.05;44.35;102089.53;5072623;28;20045;-78
2021/04/26 09:49:13;;;;;;;9.65;5.78;;;13.70;99.90;;;14.40;44.04;102087.81;5074683;28;20091;-78
2021/04/26 09:51:46;;;;;;;10.32;5.38;;;14.10;99.90;;;14.85;43.40;102090.38;5074331;28;20063;-78
2021/04/26 09:54:13;;;;;;;8.52;5.05;;;14.50;99.90;;;15.24;42.82;102079.59;5073192;28;20114;-78
2021/04/26 09:56:42;;;;;;;8.35;5.07;;;15.00;99.90;;;15.55;42.15;102084.81;5072500;28;20094;-79
2021/04/26 09:59:13;;;;;;;10.02;5.40;;;15.30;99.90;;;14.02;41.21;102069.13;5072700;28;20320;-79
2021/04/26 10:01:42;;;;;;;10.75;5.22;;;14.50;99.90;;;14.50;44.13;102081.56;5072358;28;20068;-79
2021/04/26 10:04:11;;;;;;;9.77;5.57;;;14.30;99.90;;;15.15;42.77;102084.97;5072436;28;20122;-79
2021/04/26 10:06:40;;;;;;;6.32;5.10;;;14.80;99.90;;;15.56;41.54;102081.25;5071807;28;20049;-77
2021/04/26 10:09:09;;;;;;;8.02;4.70;;;15.20;99.90;;;15.67;41.02;102080.31;5072071;28;20091;-79
2021/04/26 10:11:38;;;;;;;12.52;5.57;;;15.50;99.90;;;14.00;42.57;102067.34;5071816;28;20414;-80
2021/04/26 10:14:09;;;;;;;8.05;4.93;;;14.20;99.90;;;14.97;43.48;102071.69;5071954;28;20060;-80
2021/04/26 10:16:50;;;;;;;7.40;5.05;;;14.60;99.90;;;14.09;41.25;102057.56;5072249;28;20056;-80
2021/04/26 10:19:18;;;;;;;5.97;5.30;;;14.40;99.90;;;13.80;44.76;102058.47;5071817;28;20141;-79
2021/04/26 10:21:56;;;;;;;9.63;5.22;;;13.70;99.90;;;13.96;44.18;102044.25;5071903;28;20047;-79
2021/04/26 10:24:27;;;;;;;11.32;5.25;;;13.70;99.90;;;13.81;45.38;101972.44;5071965;28;20040;-80
2021/04/26 10:27:00;;;;;;;13.00;5.38;;;13.90;99.90;;;14.87;42.59;102051.28;5071909;28;20044;-80
2021/04/26 10:29:30;;;;;;;8.85;5.18;;;14.50;99.90;;;14.94;41.85;102031.72;5071674;28;20049;-79
2021/04/26 10:32:14;;;;;;;8.70;5.10;;;14.80;99.90;;;14.44;42.75;102045.19;5071609;28;20076;-78
2021/04/26 10:35:13;;;;;;;9.40;4.70;;;14.20;99.90;;;14.98;43.72;102041.47;5070541;28;20055;-77